createdAt,value
2022-10-23T00:00:10.660Z,9.67
2022-10-23T00:01:44.481Z,9.71
2022-10-23T00:03:16.485Z,9.69
2022-10-23T00:04:52.130Z,9.77
2022-10-23T00:06:24.865Z,9.73
2022-10-23T00:07:59.151Z,9.76
2022-10-23T00:09:31.317Z,9.73
2022-10-23T00:11:11.600Z,9.80
2022-10-23T00:12:43.958Z,9.80
2022-10-23T00:14:21.721Z,9.81
2022-10-23T00:15:53.713Z,9.79
2022-10-23T00:17:25.645Z,9.77
2022-10-23T00:18:57.801Z,9.75
2022-10-23T00:20:29.945Z,9.73
2022-10-23T00:22:01.961Z,9.75
2022-10-23T00:23:34.283Z,9.73
2022-10-23T00:25:07.972Z,9.76
2022-10-23T00:26:41.010Z,9.74
2022-10-23T00:28:19.229Z,9.75
2022-10-23T00:29:51.245Z,9.73
2022-10-23T00:31:25.423Z,9.73
2022-10-23T00:32:57.455Z,9.71
2022-10-23T00:34:29.516Z,9.69
2022-10-23T00:36:01.487Z,9.71
2022-10-23T00:37:33.668Z,9.72
2022-10-23T00:39:06.343Z,9.70
2022-10-23T00:40:39.358Z,9.72
2022-10-23T00:42:15.964Z,9.73
2022-10-23T00:43:58.787Z,9.74
2022-10-23T00:45:33.719Z,9.69
2022-10-23T00:47:05.790Z,9.66
2022-10-23T00:48:37.825Z,9.62
2022-10-23T00:50:09.920Z,9.62
2022-10-23T00:51:45.600Z,9.67
2022-10-23T00:53:18.494Z,9.66
2022-10-23T00:54:50.509Z,9.68
2022-10-23T00:56:22.497Z,9.70
2022-10-23T00:57:55.632Z,9.72
2022-10-23T00:59:28.111Z,9.76
2022-10-23T01:01:00.213Z,9.78
2022-10-23T01:02:32.231Z,9.81
2022-10-23T01:04:06.459Z,9.84
2022-10-23T01:07:45.703Z,9.88
2022-10-23T01:09:31.960Z,9.88
2022-10-23T01:11:15.743Z,9.89
2022-10-23T01:13:43.099Z,9.90
2022-10-23T01:15:26.478Z,9.90
2022-10-23T01:17:09.242Z,9.91
2022-10-23T01:18:49.796Z,9.87
2022-10-23T01:20:33.608Z,9.87
2022-10-23T01:22:17.633Z,9.84
2022-10-23T01:23:58.353Z,9.88
2022-10-23T01:25:54.951Z,9.90
2022-10-23T01:27:32.201Z,9.91
2022-10-23T01:29:04.358Z,9.91
2022-10-23T01:32:18.933Z,10.02
2022-10-23T01:34:06.533Z,10.05
2022-10-23T01:35:50.017Z,10.09
2022-10-23T01:37:30.947Z,10.11
2022-10-23T01:39:07.623Z,10.11
2022-10-23T01:40:58.428Z,10.15
2022-10-23T01:42:35.237Z,10.15
2022-10-23T01:44:17.273Z,10.16
2022-10-23T01:45:56.843Z,10.15
2022-10-23T01:47:30.561Z,10.12
2022-10-23T01:49:03.663Z,10.15
2022-10-23T01:50:37.094Z,10.13
2022-10-23T01:52:09.563Z,10.18
2022-10-23T01:53:44.205Z,10.11
2022-10-23T01:55:17.040Z,10.10
2022-10-23T01:56:50.595Z,10.12
2022-10-23T02:00:01.110Z,10.16
2022-10-23T02:01:34.432Z,10.19
2022-10-23T02:03:06.384Z,10.24
2022-10-23T02:05:10.609Z,10.28
2022-10-23T02:06:42.660Z,10.25
2022-10-23T02:08:14.838Z,10.25
2022-10-23T02:09:46.848Z,10.27
2022-10-23T02:11:21.441Z,10.30
2022-10-23T02:13:13.030Z,10.32
2022-10-23T02:15:12.646Z,10.30
2022-10-23T02:16:55.605Z,10.40
2022-10-23T02:18:48.449Z,10.43
2022-10-23T02:20:22.759Z,10.42
2022-10-23T02:22:00.551Z,10.43
2022-10-23T02:23:33.542Z,10.47
2022-10-23T02:25:33.376Z,10.55
2022-10-23T02:27:15.307Z,10.54
2022-10-23T02:28:54.679Z,10.57
2022-10-23T02:30:26.759Z,10.56
2022-10-23T02:31:58.894Z,10.58
2022-10-23T02:33:31.378Z,10.60
2022-10-23T02:35:03.984Z,10.63
2022-10-23T02:36:38.745Z,10.65
2022-10-23T02:38:30.436Z,10.71
2022-10-23T02:40:05.263Z,10.69
2022-10-23T02:41:55.806Z,10.77
2022-10-23T02:43:36.055Z,10.80
2022-10-23T02:45:28.911Z,10.83
2022-10-23T02:47:00.933Z,10.84
2022-10-23T02:48:43.747Z,10.91
2022-10-23T02:50:28.520Z,10.93
2022-10-23T02:52:29.738Z,10.94
2022-10-23T02:54:37.514Z,10.96
2022-10-23T02:56:15.130Z,10.96
2022-10-23T02:58:09.194Z,10.99
2022-10-23T02:59:59.726Z,10.96
2022-10-23T03:03:58.549Z,10.99
2022-10-23T03:05:36.198Z,11.03
2022-10-23T03:07:12.334Z,11.03
2022-10-23T03:08:48.948Z,11.03
2022-10-23T03:10:21.307Z,10.99
2022-10-23T03:11:53.354Z,11.01
2022-10-23T03:13:25.413Z,10.99
2022-10-23T03:14:57.448Z,10.98
2022-10-23T03:16:29.435Z,10.99
2022-10-23T03:18:01.515Z,10.98
2022-10-23T03:19:33.531Z,10.98
2022-10-23T03:21:05.583Z,10.97
2022-10-23T03:22:38.095Z,11.00
2022-10-23T03:24:10.104Z,10.98
2022-10-23T03:25:42.219Z,10.96
2022-10-23T03:27:14.259Z,10.99
2022-10-23T03:28:46.322Z,11.01
2022-10-23T03:30:18.397Z,11.01
2022-10-23T03:31:50.488Z,11.04
2022-10-23T03:33:23.011Z,11.04
2022-10-23T03:34:54.994Z,11.00
2022-10-23T03:36:26.921Z,11.03
2022-10-23T03:37:58.988Z,11.03
2022-10-23T03:39:30.977Z,11.03
2022-10-23T03:41:05.824Z,10.99
2022-10-23T03:42:37.854Z,11.00
2022-10-23T03:44:09.878Z,11.01
2022-10-23T03:45:41.915Z,11.00
2022-10-23T03:47:16.383Z,10.96
2022-10-23T03:48:48.394Z,10.91
2022-10-23T03:50:20.867Z,10.89
2022-10-23T03:51:53.295Z,10.86
2022-10-23T03:53:25.336Z,10.86
2022-10-23T03:54:57.365Z,10.84
2022-10-23T03:56:29.395Z,10.84
2022-10-23T03:58:01.528Z,10.82
2022-10-23T03:59:33.499Z,10.80
2022-10-23T04:01:05.726Z,10.79
2022-10-23T04:02:37.993Z,10.76
2022-10-23T04:04:10.092Z,10.73
2022-10-23T04:05:42.680Z,10.71
2022-10-23T04:07:14.609Z,10.68
2022-10-23T04:08:46.713Z,10.69
2022-10-23T04:10:18.828Z,10.67
2022-10-23T04:11:50.821Z,10.70
2022-10-23T04:13:22.925Z,10.67
2022-10-23T04:14:55.016Z,10.67
2022-10-23T04:16:27.194Z,10.70
2022-10-23T04:17:59.195Z,10.69
2022-10-23T04:19:31.361Z,10.69
2022-10-23T04:21:03.598Z,10.73
2022-10-23T04:22:35.652Z,10.71
2022-10-23T04:24:07.843Z,10.72
2022-10-23T04:25:39.918Z,10.66
2022-10-23T04:27:12.015Z,10.64
2022-10-23T04:28:44.068Z,10.59
2022-10-23T04:30:16.142Z,10.60
2022-10-23T04:31:48.413Z,10.57
2022-10-23T04:33:23.433Z,10.56
2022-10-23T04:34:55.631Z,10.58
2022-10-23T04:36:27.712Z,10.58
2022-10-23T04:37:59.723Z,10.58
2022-10-23T04:39:31.734Z,10.56
2022-10-23T04:41:03.769Z,10.56
2022-10-23T04:42:35.772Z,10.53
2022-10-23T04:44:08.094Z,10.55
2022-10-23T04:45:40.261Z,10.52
2022-10-23T04:47:12.441Z,10.51
2022-10-23T04:48:44.589Z,10.52
2022-10-23T04:50:16.915Z,10.51
2022-10-23T04:51:48.964Z,10.50
2022-10-23T04:53:21.149Z,10.51
2022-10-23T04:54:53.202Z,10.47
2022-10-23T04:56:25.260Z,10.50
2022-10-23T04:57:57.251Z,10.51
2022-10-23T04:59:29.253Z,10.50
2022-10-23T05:02:35.182Z,10.56
2022-10-23T05:04:07.367Z,10.60
2022-10-23T05:05:39.434Z,10.63
2022-10-23T05:07:11.548Z,10.63
2022-10-23T05:08:43.643Z,10.62
2022-10-23T05:10:15.984Z,10.66
2022-10-23T05:11:48.099Z,10.67
2022-10-23T05:13:20.592Z,10.72
2022-10-23T05:14:52.885Z,10.77
2022-10-23T05:16:33.297Z,10.84
2022-10-23T05:18:13.309Z,10.85
2022-10-23T05:19:54.037Z,10.88
2022-10-23T05:21:28.315Z,10.90
2022-10-23T05:23:01.146Z,10.89
2022-10-23T05:24:33.145Z,10.92
2022-10-23T05:26:05.760Z,10.98
2022-10-23T05:27:37.783Z,11.00
2022-10-23T05:29:09.789Z,11.03
2022-10-23T05:32:16.456Z,11.02
2022-10-23T05:33:48.614Z,11.12
2022-10-23T05:35:23.124Z,11.20
2022-10-23T05:36:55.822Z,11.23
2022-10-23T05:38:30.336Z,11.28
2022-10-23T05:40:02.485Z,11.27
2022-10-23T05:41:34.611Z,11.31
2022-10-23T05:43:06.852Z,11.34
2022-10-23T05:44:39.089Z,11.37
2022-10-23T05:46:11.389Z,11.39
2022-10-23T05:47:49.729Z,11.48
2022-10-23T05:49:21.964Z,11.51
2022-10-23T05:50:53.971Z,11.56
2022-10-23T05:52:26.341Z,11.60
2022-10-23T05:53:58.493Z,11.69
2022-10-23T05:55:30.881Z,11.80
2022-10-23T05:57:03.159Z,11.98
2022-10-23T05:58:35.467Z,12.10
2022-10-23T06:00:11.696Z,12.21
2022-10-23T06:01:46.898Z,12.22
2022-10-23T06:03:19.070Z,12.25
2022-10-23T06:04:51.154Z,12.30
2022-10-23T06:06:23.374Z,12.37
2022-10-23T06:08:00.136Z,12.45
2022-10-23T06:09:32.518Z,12.48
2022-10-23T06:11:15.132Z,12.59
2022-10-23T06:12:47.145Z,12.65
2022-10-23T06:14:19.457Z,12.72
2022-10-23T06:15:51.510Z,12.79
2022-10-23T06:17:23.656Z,12.88
2022-10-23T06:18:56.336Z,13.06
2022-10-23T06:20:28.877Z,13.24
2022-10-23T06:22:01.125Z,13.39
2022-10-23T06:23:34.723Z,13.56
2022-10-23T06:25:07.607Z,13.71
2022-10-23T06:26:39.934Z,13.87
2022-10-23T06:28:12.432Z,14.06
2022-10-23T06:29:46.313Z,14.28
2022-10-23T06:31:20.012Z,14.46
2022-10-23T06:32:52.296Z,14.73
2022-10-23T06:34:24.467Z,14.94
2022-10-23T06:37:30.395Z,15.31
2022-10-23T06:39:02.801Z,15.43
2022-10-23T06:40:35.248Z,15.59
2022-10-23T06:42:07.833Z,15.75
2022-10-23T06:43:40.228Z,15.89
2022-10-23T06:45:12.538Z,16.03
2022-10-23T06:46:47.532Z,16.13
2022-10-23T06:48:19.636Z,16.24
2022-10-23T06:49:51.917Z,16.33
2022-10-23T06:51:25.578Z,16.42
2022-10-23T06:52:57.991Z,16.52
2022-10-23T06:54:30.254Z,16.58
2022-10-23T06:56:03.211Z,16.67
2022-10-23T06:57:35.813Z,16.73
2022-10-23T06:59:08.116Z,16.79
2022-10-23T07:00:40.593Z,16.84
2022-10-23T07:02:12.836Z,16.91
2022-10-23T07:03:45.621Z,16.97
2022-10-23T07:05:18.604Z,17.05
2022-10-23T07:06:50.809Z,17.11
2022-10-23T07:08:23.227Z,17.19
2022-10-23T07:09:55.338Z,17.26
2022-10-23T07:11:27.755Z,17.29
2022-10-23T07:13:01.416Z,17.29
2022-10-23T07:14:36.307Z,17.37
2022-10-23T07:16:19.640Z,17.47
2022-10-23T07:17:51.767Z,17.50
2022-10-23T07:19:25.513Z,17.56
2022-10-23T07:20:59.102Z,17.61
2022-10-23T07:22:31.541Z,17.65
2022-10-23T07:24:04.373Z,17.74
2022-10-23T07:25:36.664Z,17.75
2022-10-23T07:27:08.793Z,17.78
2022-10-23T07:28:41.973Z,17.82
2022-10-23T07:30:15.330Z,17.88
2022-10-23T07:31:47.412Z,17.95
2022-10-23T07:33:19.683Z,17.91
2022-10-23T07:34:51.980Z,17.92
2022-10-23T07:36:24.368Z,17.94
2022-10-23T07:37:57.040Z,18.02
2022-10-23T07:39:29.380Z,18.04
2022-10-23T07:41:02.276Z,18.08
2022-10-23T07:42:34.701Z,18.08
2022-10-23T07:44:07.210Z,18.12
2022-10-23T07:45:39.489Z,18.13
2022-10-23T07:47:11.611Z,18.18
2022-10-23T07:48:44.097Z,18.20
2022-10-23T07:51:51.406Z,18.37
2022-10-23T07:53:25.851Z,18.49
2022-10-23T07:54:58.026Z,18.53
2022-10-23T07:56:30.364Z,18.57
2022-10-23T07:58:02.619Z,18.63
2022-10-23T07:59:37.903Z,18.71
2022-10-23T08:01:18.538Z,18.78
2022-10-23T08:02:51.002Z,18.77
2022-10-23T08:04:23.611Z,18.83
2022-10-23T08:05:56.991Z,18.87
2022-10-23T08:07:29.633Z,18.98
2022-10-23T08:09:05.484Z,18.98
2022-10-23T08:10:38.987Z,19.00
2022-10-23T08:12:11.420Z,19.03
2022-10-23T08:13:44.691Z,19.06
2022-10-23T08:15:16.869Z,19.13
2022-10-23T08:16:49.223Z,19.14
2022-10-23T08:18:21.502Z,19.21
2022-10-23T08:19:53.872Z,19.28
2022-10-23T08:21:26.285Z,19.28
2022-10-23T08:22:58.552Z,19.31
2022-10-23T08:24:30.775Z,19.36
2022-10-23T08:26:05.723Z,19.44
2022-10-23T08:27:38.912Z,19.47
2022-10-23T08:29:11.349Z,19.49
2022-10-23T08:30:43.689Z,19.53
2022-10-23T08:32:16.057Z,19.58
2022-10-23T08:35:21.643Z,19.78
2022-10-23T08:36:53.905Z,19.79
2022-10-23T08:38:26.232Z,19.84
2022-10-23T08:39:58.542Z,19.90
2022-10-23T08:41:43.301Z,20.02
2022-10-23T08:43:21.860Z,20.11
2022-10-23T08:45:27.879Z,20.16
2022-10-23T08:47:12.948Z,20.23
2022-10-23T08:48:53.231Z,20.31
2022-10-23T08:52:47.454Z,20.40
2022-10-23T08:54:47.405Z,20.42
2022-10-23T08:56:29.466Z,20.48
2022-10-23T08:58:03.211Z,20.44
2022-10-23T08:59:59.453Z,20.49
2022-10-23T09:01:38.559Z,20.47
2022-10-23T09:03:13.555Z,20.51
2022-10-23T09:04:47.889Z,20.52
2022-10-23T09:06:36.017Z,20.57
2022-10-23T09:08:34.069Z,20.58
2022-10-23T09:10:31.541Z,20.60
2022-10-23T09:12:07.852Z,20.58
2022-10-23T09:13:50.849Z,20.60
2022-10-23T09:15:36.022Z,20.61
2022-10-23T09:17:25.794Z,20.65
2022-10-23T09:18:58.359Z,20.60
2022-10-23T09:20:35.041Z,20.63
2022-10-23T09:22:07.479Z,20.65
2022-10-23T09:23:39.861Z,20.70
2022-10-23T09:25:23.321Z,20.80
2022-10-23T09:26:56.108Z,20.84
2022-10-23T09:28:32.027Z,20.89
2022-10-23T09:30:04.856Z,20.88
2022-10-23T09:31:49.110Z,20.98
2022-10-23T09:33:26.662Z,21.06
2022-10-23T09:34:59.133Z,21.05
2022-10-23T09:36:31.483Z,21.08
2022-10-23T09:38:03.751Z,21.09
2022-10-23T09:39:37.017Z,21.17
2022-10-23T09:41:20.132Z,21.23
2022-10-23T09:43:04.194Z,21.23
2022-10-23T09:44:36.489Z,21.27
2022-10-23T09:46:09.811Z,21.33
2022-10-23T09:47:42.629Z,21.36
2022-10-23T09:49:20.995Z,21.43
2022-10-23T09:51:17.953Z,21.45
2022-10-23T09:52:53.557Z,21.46
2022-10-23T09:54:25.794Z,21.42
2022-10-23T09:56:02.307Z,21.45
2022-10-23T09:57:42.009Z,21.48
2022-10-23T09:59:14.611Z,21.50
2022-10-23T10:00:51.133Z,21.58
2022-10-23T10:02:30.857Z,21.69
2022-10-23T10:04:03.194Z,21.73
2022-10-23T10:05:37.942Z,21.79
2022-10-23T10:07:21.967Z,21.83
2022-10-23T10:10:45.744Z,21.91
2022-10-23T10:12:46.952Z,22.01
2022-10-23T10:14:56.140Z,22.09
2022-10-23T10:16:48.608Z,22.13
2022-10-23T10:18:48.096Z,22.16
2022-10-23T10:20:46.763Z,22.24
2022-10-23T10:22:30.733Z,22.30
2022-10-23T10:24:22.173Z,22.34
2022-10-23T10:26:16.674Z,22.34
2022-10-23T10:28:07.425Z,22.25
2022-10-23T10:30:01.153Z,22.23
2022-10-23T10:32:02.498Z,22.32
2022-10-23T10:33:53.675Z,22.35
2022-10-23T10:35:34.793Z,22.38
2022-10-23T10:37:32.944Z,22.48
2022-10-23T10:39:12.257Z,22.53
2022-10-23T10:41:05.918Z,22.62
2022-10-23T10:42:49.368Z,22.62
2022-10-23T10:46:29.060Z,22.60
2022-10-23T10:48:08.217Z,22.61
2022-10-23T10:49:58.008Z,22.67
2022-10-23T10:51:39.657Z,22.53
2022-10-23T10:53:45.743Z,22.61
2022-10-23T10:55:54.423Z,22.56
2022-10-23T10:57:33.563Z,22.57
2022-10-23T10:59:13.191Z,22.60
2022-10-23T11:00:46.088Z,22.60
2022-10-23T11:02:29.463Z,22.72
2022-10-23T11:04:19.498Z,22.74
2022-10-23T11:05:52.307Z,22.69
2022-10-23T11:07:27.956Z,22.66
2022-10-23T11:09:19.714Z,22.71
2022-10-23T11:10:57.592Z,22.73
2022-10-23T11:12:33.096Z,22.69
2022-10-23T11:14:05.639Z,22.72
2022-10-23T11:15:43.715Z,22.80
2022-10-23T11:17:40.159Z,22.89
2022-10-23T11:19:34.735Z,22.94
2022-10-23T11:21:27.619Z,23.00
2022-10-23T11:23:36.911Z,23.13
2022-10-23T11:25:32.626Z,23.14
2022-10-23T11:27:27.562Z,23.18
2022-10-23T11:29:14.187Z,23.15
2022-10-23T11:31:11.539Z,23.20
2022-10-23T11:33:02.291Z,23.11
2022-10-23T11:34:46.951Z,23.19
2022-10-23T11:36:21.783Z,23.18
2022-10-23T11:38:28.580Z,23.17
2022-10-23T11:40:22.584Z,23.10
2022-10-23T11:42:19.131Z,23.18
2022-10-23T11:43:57.484Z,23.26
2022-10-23T11:45:47.934Z,23.30
2022-10-23T11:47:39.339Z,23.33
2022-10-23T11:49:25.160Z,23.27
2022-10-23T11:50:59.161Z,23.29
2022-10-23T11:52:50.656Z,23.37
2022-10-23T11:54:28.778Z,23.39
2022-10-23T11:56:27.398Z,23.40
2022-10-23T11:58:05.907Z,23.48
2022-10-23T11:59:50.267Z,23.48
2022-10-23T12:01:47.315Z,23.44
2022-10-23T12:03:24.606Z,23.42
2022-10-23T12:04:57.113Z,23.48
2022-10-23T12:06:52.595Z,23.48
2022-10-23T12:08:28.163Z,23.54
2022-10-23T12:10:03.239Z,23.54
2022-10-23T12:11:48.184Z,23.58
2022-10-23T12:13:38.383Z,23.56
2022-10-23T12:15:16.440Z,23.60
2022-10-23T12:16:48.771Z,23.63
2022-10-23T12:18:22.373Z,23.74
2022-10-23T12:19:55.383Z,23.84
2022-10-23T12:21:28.819Z,23.90
2022-10-23T12:23:00.930Z,23.96
2022-10-23T12:24:40.088Z,24.00
2022-10-23T12:26:18.536Z,23.94
2022-10-23T12:27:59.534Z,23.97
2022-10-23T12:29:51.821Z,23.99
2022-10-23T12:31:23.940Z,24.00
2022-10-23T12:32:56.134Z,23.93
2022-10-23T12:35:03.647Z,23.90
2022-10-23T12:36:35.655Z,23.86
2022-10-23T12:38:15.716Z,23.84
2022-10-23T12:39:52.454Z,23.69
2022-10-23T12:41:33.126Z,23.64
2022-10-23T12:43:17.895Z,23.75
2022-10-23T12:45:13.173Z,23.68
2022-10-23T12:46:48.536Z,23.70
2022-10-23T12:48:21.911Z,23.71
2022-10-23T12:49:53.989Z,23.74
2022-10-23T12:51:31.188Z,23.79
2022-10-23T12:53:04.928Z,23.83
2022-10-23T12:54:39.217Z,23.86
2022-10-23T12:56:11.216Z,23.92
2022-10-23T12:59:18.070Z,23.81
2022-10-23T13:00:54.194Z,23.76
2022-10-23T13:02:30.736Z,23.80
2022-10-23T13:04:12.224Z,23.85
2022-10-23T13:05:44.430Z,23.84
2022-10-23T13:07:16.509Z,23.87
2022-10-23T13:08:48.684Z,23.95
2022-10-23T13:10:21.636Z,23.89
2022-10-23T13:11:53.770Z,23.83
2022-10-23T13:13:25.833Z,23.84
2022-10-23T13:15:03.822Z,23.74
2022-10-23T13:16:36.012Z,23.78
2022-10-23T13:18:08.776Z,23.81
2022-10-23T13:19:40.771Z,23.86
2022-10-23T13:21:23.290Z,23.77
2022-10-23T13:23:00.761Z,23.73
2022-10-23T13:24:33.472Z,23.75
2022-10-23T13:26:06.797Z,23.63
2022-10-23T13:27:39.032Z,23.59
2022-10-23T13:31:02.407Z,23.48
2022-10-23T13:32:34.547Z,23.49
2022-10-23T13:34:07.802Z,23.46
2022-10-23T13:35:39.806Z,23.47
2022-10-23T13:37:21.065Z,23.50
2022-10-23T13:39:04.987Z,23.43
2022-10-23T13:40:37.164Z,23.39
2022-10-23T13:42:35.680Z,23.46
2022-10-23T13:44:08.099Z,23.46
2022-10-23T13:45:41.064Z,23.46
2022-10-23T13:47:13.470Z,23.31
2022-10-23T13:48:45.914Z,23.31
2022-10-23T13:50:18.211Z,23.28
2022-10-23T13:51:51.547Z,23.29
2022-10-23T13:53:23.549Z,23.32
2022-10-23T13:54:55.587Z,23.34
2022-10-23T13:56:31.737Z,23.30
2022-10-23T13:58:04.023Z,23.28
2022-10-23T13:59:36.108Z,23.30
2022-10-23T14:01:12.620Z,23.31
2022-10-23T14:02:45.486Z,23.28
2022-10-23T14:04:18.085Z,23.14
2022-10-23T14:05:51.023Z,23.09
2022-10-23T14:07:23.056Z,23.14
2022-10-23T14:08:55.173Z,23.15
2022-10-23T14:10:27.859Z,23.16
2022-10-23T14:12:00.032Z,23.12
2022-10-23T14:13:32.285Z,23.12
2022-10-23T14:15:04.312Z,23.12
2022-10-23T14:16:36.437Z,23.10
2022-10-23T14:19:48.488Z,23.05
2022-10-23T14:21:21.115Z,22.99
2022-10-23T14:22:53.119Z,22.98
2022-10-23T14:24:25.334Z,22.94
2022-10-23T14:26:04.087Z,22.92
2022-10-23T14:27:36.304Z,22.84
2022-10-23T14:29:10.293Z,22.84
2022-10-23T14:30:48.317Z,22.84
2022-10-23T14:32:20.237Z,22.79
2022-10-23T14:33:54.500Z,22.75
2022-10-23T14:53:14.112Z,22.07
2022-10-23T14:54:46.162Z,22.01
2022-10-23T14:56:18.451Z,21.95
2022-10-23T14:57:54.958Z,21.88
2022-10-23T14:59:27.188Z,21.80
2022-10-23T15:00:59.862Z,21.73
2022-10-23T15:02:32.188Z,21.67
2022-10-23T15:04:04.453Z,21.59
2022-10-23T15:05:36.572Z,21.51
2022-10-23T15:07:08.763Z,21.46
2022-10-23T15:08:41.045Z,21.38
2022-10-23T15:10:13.430Z,21.32
2022-10-23T15:11:45.708Z,21.23
2022-10-23T15:13:17.775Z,21.14
2022-10-23T15:14:49.766Z,21.06
2022-10-23T15:16:22.454Z,20.94
2022-10-23T15:17:54.425Z,20.80
2022-10-23T15:19:26.566Z,20.66
2022-10-23T15:20:58.651Z,20.52
2022-10-23T15:22:30.813Z,20.37
2022-10-23T15:24:03.322Z,20.23
2022-10-23T15:25:40.921Z,20.12
2022-10-23T15:27:12.862Z,19.99
2022-10-23T15:28:44.720Z,19.89
2022-10-23T15:30:17.004Z,19.77
2022-10-23T15:31:56.185Z,19.67
2022-10-23T15:33:28.317Z,19.56
2022-10-23T15:35:00.534Z,19.47
2022-10-23T15:36:32.805Z,19.33
2022-10-23T15:38:05.025Z,19.25
2022-10-23T15:39:38.175Z,19.14
2022-10-23T15:41:14.671Z,19.05
2022-10-23T15:42:47.882Z,18.94
2022-10-23T15:44:20.492Z,18.84
2022-10-23T15:45:52.467Z,18.77
2022-10-23T15:47:24.452Z,18.67
2022-10-23T15:48:56.408Z,18.53
2022-10-23T15:50:28.637Z,18.41
2022-10-23T15:52:00.766Z,18.30
2022-10-23T15:53:33.484Z,18.20
2022-10-23T15:55:06.001Z,18.11
2022-10-23T15:56:38.073Z,18.00
2022-10-23T15:58:10.097Z,17.98
2022-10-23T15:59:42.324Z,17.88
2022-10-23T16:01:14.485Z,17.76
2022-10-23T16:02:46.733Z,17.59
2022-10-23T16:04:19.021Z,17.44
2022-10-23T16:05:51.089Z,17.32
2022-10-23T16:07:23.409Z,17.23
2022-10-23T16:08:55.499Z,17.13
2022-10-23T16:10:27.666Z,17.06
2022-10-23T16:11:59.772Z,16.88
2022-10-23T16:13:31.925Z,16.73
2022-10-23T16:15:04.073Z,16.63
2022-10-23T16:16:36.165Z,16.50
2022-10-23T16:18:09.317Z,16.38
2022-10-23T16:19:41.648Z,16.29
2022-10-23T16:21:32.193Z,16.24
2022-10-23T16:23:04.291Z,16.17
2022-10-23T16:24:36.279Z,16.12
2022-10-23T16:26:08.294Z,16.04
2022-10-23T16:27:40.420Z,15.95
2022-10-23T16:29:12.557Z,15.89
2022-10-23T16:30:44.535Z,15.86
2022-10-23T16:32:19.457Z,15.80
2022-10-23T16:33:51.821Z,15.72
2022-10-23T16:35:23.866Z,15.68
2022-10-23T16:36:55.736Z,15.65
2022-10-23T16:38:27.878Z,15.61
2022-10-23T16:40:01.326Z,15.54
2022-10-23T16:41:33.337Z,15.49
2022-10-23T16:43:05.360Z,15.42
2022-10-23T16:44:37.474Z,15.37
2022-10-23T16:46:13.788Z,15.34
2022-10-23T16:47:45.911Z,15.27
2022-10-23T16:49:20.903Z,15.20
2022-10-23T16:50:53.106Z,15.14
2022-10-23T16:52:25.565Z,15.11
2022-10-23T16:53:57.940Z,15.05
2022-10-23T16:57:03.939Z,14.98
2022-10-23T16:58:36.277Z,14.89
2022-10-23T17:00:08.491Z,14.85
2022-10-23T17:01:40.670Z,14.80
2022-10-23T17:03:12.791Z,14.69
2022-10-23T17:04:44.973Z,14.62
2022-10-23T17:06:18.461Z,14.58
2022-10-23T17:07:50.671Z,14.53
2022-10-23T17:09:24.022Z,14.48
2022-10-23T17:11:08.483Z,14.45
2022-10-23T17:12:40.528Z,14.40
2022-10-23T17:14:14.113Z,14.35
2022-10-23T17:15:46.115Z,14.31
2022-10-23T17:17:18.200Z,14.27
2022-10-23T17:18:50.580Z,14.21
2022-10-23T17:20:22.697Z,14.14
2022-10-23T17:21:55.471Z,14.07
2022-10-23T17:23:27.978Z,14.01
2022-10-23T17:26:36.600Z,13.91
2022-10-23T17:28:08.819Z,13.85
2022-10-23T17:29:40.820Z,13.82
2022-10-23T17:31:13.180Z,13.77
2022-10-23T17:32:45.676Z,13.75
2022-10-23T17:34:19.802Z,13.71
2022-10-23T17:35:52.949Z,13.68
2022-10-23T17:37:24.959Z,13.67
2022-10-23T17:38:56.938Z,13.66
2022-10-23T17:40:34.475Z,13.67
2022-10-23T17:42:06.656Z,13.68
2022-10-23T17:43:38.778Z,13.70
2022-10-23T17:45:11.110Z,13.69
2022-10-23T17:46:43.067Z,13.69
2022-10-23T17:48:15.098Z,13.71
2022-10-23T17:49:47.001Z,13.70
2022-10-23T17:51:22.754Z,13.70
2022-10-23T17:52:54.933Z,13.68
2022-10-23T17:54:27.769Z,13.65
2022-10-23T17:56:01.452Z,13.57
2022-10-23T17:57:33.289Z,13.47
2022-10-23T17:59:07.088Z,13.39
2022-10-23T18:00:41.987Z,13.33
2022-10-23T18:02:14.087Z,13.29
2022-10-23T18:03:46.209Z,13.19
2022-10-23T18:05:18.384Z,13.08
2022-10-23T18:06:53.065Z,13.01
2022-10-23T18:08:25.176Z,12.98
2022-10-23T18:09:57.140Z,12.96
2022-10-23T18:11:33.823Z,12.94
2022-10-23T18:13:05.927Z,12.89
2022-10-23T18:14:38.211Z,12.86
2022-10-23T18:16:11.825Z,12.83
2022-10-23T18:17:44.002Z,12.81
2022-10-23T18:19:18.519Z,12.82
2022-10-23T18:20:50.513Z,12.82
2022-10-23T18:22:22.595Z,12.78
2022-10-23T18:23:55.085Z,12.78
2022-10-23T18:25:27.320Z,12.75
2022-10-23T18:26:59.340Z,12.75
2022-10-23T18:28:32.854Z,12.71
2022-10-23T18:30:05.249Z,12.69
2022-10-23T18:31:40.665Z,12.68
2022-10-23T18:33:12.626Z,12.66
2022-10-23T18:34:44.804Z,12.67
2022-10-23T18:36:18.925Z,12.64
2022-10-23T18:37:50.901Z,12.55
2022-10-23T18:39:23.593Z,12.44
2022-10-23T18:40:55.661Z,12.31
2022-10-23T18:42:27.489Z,12.21
2022-10-23T18:43:59.592Z,12.14
2022-10-23T18:45:31.778Z,12.12
2022-10-23T18:47:03.679Z,12.08
2022-10-23T18:48:35.902Z,12.07
2022-10-23T18:50:08.066Z,12.07
2022-10-23T18:51:40.217Z,12.05
2022-10-23T18:53:12.307Z,12.04
2022-10-23T18:54:44.397Z,12.04
2022-10-23T18:56:16.798Z,12.03
2022-10-23T18:57:48.906Z,11.98
2022-10-23T18:59:21.285Z,11.94
2022-10-23T19:00:53.288Z,11.97
2022-10-23T19:02:25.815Z,11.96
2022-10-23T19:03:59.661Z,11.95
2022-10-23T19:05:31.822Z,11.94
2022-10-23T19:07:03.940Z,11.94
2022-10-23T19:08:39.395Z,11.99
2022-10-23T19:10:16.100Z,12.03
2022-10-23T19:11:48.052Z,12.05
2022-10-23T19:13:21.298Z,11.98
2022-10-23T19:14:55.256Z,11.92
2022-10-23T19:16:31.581Z,11.86
2022-10-23T19:18:04.346Z,11.82
2022-10-23T19:19:36.994Z,11.83
2022-10-23T19:21:09.285Z,11.85
2022-10-23T19:22:41.685Z,11.85
2022-10-23T19:24:18.636Z,11.77
2022-10-23T19:25:50.659Z,11.64
2022-10-23T19:27:22.654Z,11.58
2022-10-23T19:28:54.583Z,11.55
2022-10-23T19:30:26.665Z,11.55
2022-10-23T19:31:58.738Z,11.58
2022-10-23T19:33:30.745Z,11.58
2022-10-23T19:35:02.830Z,11.59
2022-10-23T19:36:34.862Z,11.60
2022-10-23T19:38:06.831Z,11.61
2022-10-23T19:39:39.039Z,11.58
2022-10-23T19:41:11.228Z,11.55
2022-10-23T19:42:43.460Z,11.53
2022-10-23T19:44:15.461Z,11.48
2022-10-23T19:45:49.638Z,11.43
2022-10-23T19:47:21.702Z,11.38
2022-10-23T19:48:57.611Z,11.36
2022-10-23T19:50:29.820Z,11.28
2022-10-23T19:52:01.648Z,11.22
2022-10-23T19:53:34.517Z,11.17
2022-10-23T19:55:06.873Z,11.17
2022-10-23T19:56:38.908Z,11.17
2022-10-23T19:58:11.108Z,11.16
2022-10-23T19:59:43.116Z,11.15
2022-10-23T20:01:16.636Z,11.15
2022-10-23T20:02:51.354Z,11.11
2022-10-23T20:04:26.363Z,11.03
2022-10-23T20:05:58.357Z,10.96
2022-10-23T20:07:30.415Z,10.89
2022-10-23T20:09:08.238Z,10.82
2022-10-23T20:10:43.492Z,10.78
2022-10-23T20:12:15.478Z,10.75
2022-10-23T20:13:47.874Z,10.72
2022-10-23T20:15:19.748Z,10.67
2022-10-23T20:16:55.712Z,10.61
2022-10-23T20:18:28.122Z,10.56
2022-10-23T20:20:02.962Z,10.49
2022-10-23T20:21:38.422Z,10.44
2022-10-23T20:23:10.359Z,10.36
2022-10-23T20:24:42.658Z,10.29
2022-10-23T20:26:18.710Z,10.24
2022-10-23T20:27:50.615Z,10.18
2022-10-23T20:29:22.756Z,10.14
2022-10-23T20:30:54.587Z,10.13
2022-10-23T20:32:26.407Z,10.15
2022-10-23T20:33:58.344Z,10.20
2022-10-23T20:35:30.276Z,10.23
2022-10-23T20:37:02.248Z,10.27
2022-10-23T20:38:34.479Z,10.30
2022-10-23T20:40:06.667Z,10.32
2022-10-23T20:41:38.656Z,10.30
2022-10-23T20:43:10.501Z,10.29
2022-10-23T20:44:42.346Z,10.25
2022-10-23T20:46:14.258Z,10.19
2022-10-23T20:47:48.084Z,10.09
2022-10-23T20:49:19.987Z,10.01
2022-10-23T20:50:51.811Z,9.96
2022-10-23T20:52:24.030Z,9.91
2022-10-23T20:53:56.021Z,9.91
2022-10-23T20:55:27.881Z,9.93
2022-10-23T20:56:59.729Z,9.93
2022-10-23T20:58:31.583Z,9.89
2022-10-23T21:00:05.880Z,9.85
2022-10-23T21:01:39.643Z,9.84
2022-10-23T21:03:11.577Z,9.84
2022-10-23T21:04:43.466Z,9.83
2022-10-23T21:06:16.042Z,9.81
2022-10-23T21:07:47.917Z,9.77
2022-10-23T21:09:19.762Z,9.76
2022-10-23T21:10:51.701Z,9.77
2022-10-23T21:12:23.677Z,9.80
2022-10-23T21:14:00.410Z,9.81
2022-10-23T21:15:32.257Z,9.83
2022-10-23T21:17:04.379Z,9.83
2022-10-23T21:18:45.532Z,9.80
2022-10-23T21:20:18.501Z,9.75
2022-10-23T21:21:50.468Z,9.73
2022-10-23T21:23:22.441Z,9.68
2022-10-23T21:26:34.744Z,9.65